KMCF/MCF METAR and TAF weather

Enter ICAO airport designator
Station Type Date Time Source
KMCF METAR 2019/04/25 16:17 UTC NOAA

KMCF 251617Z AUTO 18007KT 10SM BKN200 26/18 A3002 RMK AO2 DZB01E17 SLP169 FZRANO $


Station Type Date Time Source
KMCF Decoded METAR 2019/04/25 16:17 UTC NOAA

Macdill Air Force Base, Fl., FL, United States (KMCF) 27-51N 082-30W 4M
Apr 25, 2019 - 12:17 PM EDT / 2019.04.25 1617 UTC
Wind: from the S (180 degrees) at 8 MPH (7 KT):0
Visibility: 10 mile(s):0
Sky conditions: mostly cloudy
Temperature: 78 F (26 C)
Dew Point: 64 F (18 C)
Relative Humidity: 61%
Pressure (altimeter): 30.02 in. Hg (1016 hPa)
ob: KMCF 251617Z AUTO 18007KT 10SM BKN200 26/18 A3002 RMK AO2 DZB01E17 SLP169 FZRANO
cycle: 16

Station Type Date Time Source
KMCF TAF 2019/04/25 16:27 UTC NOAA

TAF TAF KMCF 251600Z 2516/2622 18009KT 9999 OVC200 QNH2994INS
BECMG 2605/2606 19006KT 9999 OVC003 QNH2988INS
BECMG 2611/2612 21009KT 9999 SCT018 QNH2990INS
BECMG 2613/2614 22018G25KT 9999 VCSH BKN025 QNH2991INS
TEMPO 2615/2618 25015G25KT 3200 -TSRA OVC010CB
BECMG 2619/2620 27012KT 8000 -SHRA BKN025 QNH2985INS TX29/2520Z TN21/2605Z

Example: see airport list